createdAt,value
2022-08-07T00:00:25.769Z,8.10
2022-08-07T00:03:05.408Z,8.20
2022-08-07T00:05:32.366Z,7.95
2022-08-07T00:08:03.794Z,9.27
2022-08-07T00:10:31.551Z,8.68
2022-08-07T00:13:09.852Z,9.40
2022-08-07T00:15:50.898Z,8.65
2022-08-07T00:18:24.479Z,7.80
2022-08-07T00:21:01.805Z,7.20
2022-08-07T00:23:31.907Z,8.20
2022-08-07T00:26:13.056Z,7.50
2022-08-07T00:28:56.820Z,6.88
2022-08-07T00:31:37.868Z,6.93
2022-08-07T00:34:09.524Z,7.47
2022-08-07T00:36:38.630Z,10.82
2022-08-07T00:39:16.973Z,9.20
2022-08-07T00:41:53.678Z,8.23
2022-08-07T00:44:29.701Z,9.90
2022-08-07T00:46:56.462Z,11.77
2022-08-07T00:50:16.708Z,11.85
2022-08-07T00:52:10.155Z,11.38
2022-08-07T00:54:40.670Z,12.52
2022-08-07T00:57:10.027Z,11.98
2022-08-07T00:59:39.670Z,12.03
2022-08-07T01:02:13.920Z,10.80
2022-08-07T01:04:47.609Z,11.30
2022-08-07T01:07:16.203Z,11.32
2022-08-07T01:10:04.905Z,11.27
2022-08-07T01:12:31.125Z,11.53
2022-08-07T01:15:01.174Z,11.55
2022-08-07T01:17:31.514Z,11.93
2022-08-07T01:20:06.699Z,12.35
2022-08-07T01:22:36.803Z,11.15
2022-08-07T01:25:39.954Z,11.37
2022-08-07T01:27:52.510Z,11.60
2022-08-07T01:30:27.047Z,10.52
2022-08-07T01:32:56.522Z,11.38
2022-08-07T01:35:52.651Z,11.23
2022-08-07T01:38:25.646Z,11.47
2022-08-07T01:41:00.565Z,10.35
2022-08-07T01:43:34.791Z,10.55
2022-08-07T01:46:08.089Z,9.90
2022-08-07T01:48:46.721Z,10.25
2022-08-07T01:51:24.203Z,11.87
2022-08-07T01:54:33.162Z,11.45
2022-08-07T01:57:20.416Z,10.57
2022-08-07T01:59:57.443Z,13.25
2022-08-07T02:03:05.722Z,11.95
2022-08-07T02:05:43.334Z,11.70
2022-08-07T02:08:23.803Z,12.77
2022-08-07T02:10:55.360Z,11.68
2022-08-07T02:13:58.140Z,12.23
2022-08-07T02:16:19.647Z,12.50
2022-08-07T02:18:51.176Z,12.43
2022-08-07T02:21:19.172Z,12.52
2022-08-07T02:23:46.087Z,12.40
2022-08-07T02:26:33.016Z,12.32
2022-08-07T02:29:02.449Z,13.38
2022-08-07T02:31:32.675Z,12.87
2022-08-07T02:34:10.956Z,13.10
2022-08-07T02:36:43.983Z,12.18
2022-08-07T02:39:42.939Z,14.13
2022-08-07T02:42:10.386Z,12.93
2022-08-07T02:44:45.820Z,13.50
2022-08-07T02:47:19.879Z,13.25
2022-08-07T02:49:57.586Z,13.90
2022-08-07T02:52:32.602Z,13.30
2022-08-07T02:55:27.726Z,13.52
2022-08-07T02:57:55.384Z,11.90
2022-08-07T03:00:26.479Z,13.52
2022-08-07T03:02:55.022Z,13.52
2022-08-07T03:05:24.809Z,13.07
2022-08-07T03:08:07.717Z,13.70
2022-08-07T03:10:40.998Z,11.50
2022-08-07T03:13:15.612Z,11.73
2022-08-07T03:15:56.509Z,13.52
2022-08-07T03:18:34.743Z,12.38
2022-08-07T03:21:08.676Z,12.13
2022-08-07T03:24:19.761Z,11.47
2022-08-07T03:26:33.145Z,11.45
2022-08-07T03:29:06.276Z,11.98
2022-08-07T03:31:42.452Z,13.27
2022-08-07T03:34:18.220Z,10.82
2022-08-07T03:36:46.699Z,12.63
2022-08-07T03:39:17.745Z,13.25
2022-08-07T03:42:06.238Z,12.30
2022-08-07T03:44:35.654Z,11.75
2022-08-07T03:47:13.708Z,12.75
2022-08-07T03:49:48.067Z,12.77
2022-08-07T03:52:26.851Z,11.60
2022-08-07T03:55:06.954Z,12.32
2022-08-07T03:58:33.044Z,12.50
2022-08-07T04:00:33.515Z,12.40
2022-08-07T04:03:04.179Z,11.90
2022-08-07T04:05:42.134Z,12.50
2022-08-07T04:08:18.677Z,13.60
2022-08-07T04:10:54.290Z,12.85
2022-08-07T04:14:10.680Z,12.60
2022-08-07T04:16:31.422Z,13.30
2022-08-07T04:19:04.271Z,13.35
2022-08-07T04:21:39.899Z,11.50
2022-08-07T04:24:33.570Z,11.98
2022-08-07T04:27:04.780Z,12.35
2022-08-07T04:29:40.355Z,12.23
2022-08-07T04:32:33.870Z,12.38
2022-08-07T04:35:07.223Z,11.63
2022-08-07T04:37:40.524Z,11.75
2022-08-07T04:40:26.752Z,12.52
2022-08-07T04:43:01.752Z,14.13
2022-08-07T04:46:01.156Z,13.05
2022-08-07T04:48:45.361Z,12.57
2022-08-07T04:51:29.017Z,14.48
2022-08-07T04:54:30.288Z,13.25
2022-08-07T04:58:24.121Z,14.47
2022-08-07T05:00:14.325Z,11.57
2022-08-07T05:03:16.719Z,12.15
2022-08-07T05:06:19.794Z,12.40
2022-08-07T05:09:01.562Z,13.23
2022-08-07T05:11:57.145Z,12.73
2022-08-07T05:14:52.664Z,12.32
2022-08-07T05:17:51.598Z,11.82
2022-08-07T05:20:10.789Z,12.13
2022-08-07T05:22:41.079Z,11.40
2022-08-07T05:25:11.801Z,13.03
2022-08-07T05:28:15.913Z,12.27
2022-08-07T05:30:42.372Z,11.85
2022-08-07T05:33:12.941Z,10.52
2022-08-07T05:35:42.652Z,12.95
2022-08-07T05:38:12.973Z,11.90
2022-08-07T05:41:01.212Z,12.68
2022-08-07T05:43:49.622Z,11.93
2022-08-07T05:46:17.575Z,12.52
2022-08-07T05:48:58.988Z,11.50
2022-08-07T05:51:31.727Z,12.13
2022-08-07T05:54:08.471Z,12.05
2022-08-07T05:56:42.643Z,11.77
2022-08-07T05:59:16.341Z,12.73
2022-08-07T06:01:45.869Z,11.65
2022-08-07T06:04:17.487Z,10.70
2022-08-07T06:06:46.316Z,10.40
2022-08-07T06:09:17.251Z,9.27
2022-08-07T06:11:47.367Z,11.70
2022-08-07T06:14:21.471Z,11.25
2022-08-07T06:16:58.592Z,10.90
2022-08-07T06:19:51.766Z,10.50
2022-08-07T06:22:23.392Z,11.55
2022-08-07T06:25:01.187Z,10.05
2022-08-07T06:28:00.545Z,10.73
2022-08-07T06:30:32.109Z,10.90
2022-08-07T06:33:16.487Z,10.75
2022-08-07T06:36:06.714Z,9.93
2022-08-07T06:38:35.180Z,10.05
2022-08-07T06:41:09.617Z,10.32
2022-08-07T06:43:46.087Z,9.83
2022-08-07T06:46:31.458Z,10.27
2022-08-07T06:49:03.829Z,9.85
2022-08-07T06:51:34.747Z,9.70
2022-08-07T06:55:28.999Z,9.40
2022-08-07T06:56:56.892Z,9.20
2022-08-07T07:00:12.086Z,8.82
2022-08-07T07:02:48.992Z,8.77
2022-08-07T07:05:13.685Z,8.82
2022-08-07T07:08:06.692Z,8.32
2022-08-07T07:10:36.781Z,8.63
2022-08-07T07:13:56.186Z,8.02
2022-08-07T07:16:20.550Z,8.50
2022-08-07T07:18:57.368Z,7.78
2022-08-07T07:21:40.382Z,8.00
2022-08-07T07:24:17.388Z,7.90
2022-08-07T07:26:51.761Z,7.50
2022-08-07T07:29:40.538Z,7.70
2022-08-07T07:32:14.061Z,6.78
2022-08-07T07:34:48.574Z,6.68
2022-08-07T07:37:44.406Z,7.07
2022-08-07T07:40:15.108Z,6.95
2022-08-07T07:42:47.369Z,6.93
2022-08-07T07:45:24.471Z,5.80
2022-08-07T07:48:11.088Z,6.25
2022-08-07T07:50:40.136Z,6.40
2022-08-07T07:53:13.596Z,6.10
2022-08-07T07:55:57.975Z,5.10
2022-08-07T07:58:40.610Z,5.68
2022-08-07T08:02:03.271Z,5.40
2022-08-07T08:04:10.099Z,5.97
2022-08-07T08:06:51.973Z,5.90
2022-08-07T08:09:23.302Z,5.90
2022-08-07T08:12:03.029Z,5.78
2022-08-07T08:14:36.361Z,5.53
2022-08-07T08:18:36.585Z,5.87
2022-08-07T08:20:18.657Z,4.78
2022-08-07T08:23:10.224Z,5.10
2022-08-07T08:25:58.167Z,5.40
2022-08-07T08:28:37.849Z,4.93
2022-08-07T08:31:16.014Z,4.83
2022-08-07T08:33:49.412Z,5.25
2022-08-07T08:36:29.578Z,5.55
2022-08-07T08:39:02.006Z,5.93
2022-08-07T08:41:57.746Z,5.05
2022-08-07T08:44:44.578Z,5.03
2022-08-07T08:47:47.396Z,5.10
2022-08-07T08:50:39.427Z,4.65
2022-08-07T08:53:30.270Z,4.28
2022-08-07T08:56:01.590Z,4.53
2022-08-07T08:59:13.986Z,5.40
2022-08-07T09:02:13.994Z,4.93
2022-08-07T09:04:51.730Z,5.15
2022-08-07T09:07:34.034Z,4.75
2022-08-07T09:10:44.370Z,4.70
2022-08-07T09:13:37.962Z,4.00
2022-08-07T09:16:30.538Z,4.13
2022-08-07T09:19:51.821Z,4.10
2022-08-07T09:24:32.558Z,4.18
2022-08-07T09:25:53.432Z,3.90
2022-08-07T09:30:04.151Z,4.00
2022-08-07T09:31:41.191Z,3.50
2022-08-07T09:34:32.305Z,4.10
2022-08-07T09:37:48.168Z,3.72
2022-08-07T09:40:37.962Z,3.45
2022-08-07T09:43:13.124Z,3.33
2022-08-07T09:47:24.464Z,3.10
2022-08-07T09:50:01.591Z,3.10
2022-08-07T09:52:51.692Z,3.00
2022-08-07T09:55:29.318Z,3.00
2022-08-07T09:59:07.869Z,3.13
2022-08-07T10:01:58.071Z,3.00
2022-08-07T10:04:32.899Z,3.15
2022-08-07T10:07:02.984Z,2.70
2022-08-07T10:10:06.252Z,3.50
2022-08-07T10:13:01.659Z,2.77
2022-08-07T10:16:13.766Z,2.70
2022-08-07T10:19:17.042Z,2.60
2022-08-07T10:22:15.694Z,2.92
2022-08-07T10:24:56.043Z,3.38
2022-08-07T10:27:46.414Z,2.70
2022-08-07T10:30:20.196Z,3.00
2022-08-07T10:33:14.825Z,2.80
2022-08-07T10:35:57.127Z,2.90
2022-08-07T10:38:41.162Z,2.47
2022-08-07T10:41:47.487Z,2.20
2022-08-07T10:44:33.836Z,1.98
2022-08-07T10:47:26.947Z,2.03
2022-08-07T10:50:19.587Z,2.10
2022-08-07T10:53:02.704Z,2.00
2022-08-07T10:55:57.222Z,2.10
2022-08-07T10:58:47.930Z,2.10
2022-08-07T11:01:51.908Z,2.13
2022-08-07T11:04:45.509Z,2.00
2022-08-07T11:07:59.208Z,2.08
2022-08-07T11:11:20.340Z,2.13
2022-08-07T11:14:45.363Z,1.95
2022-08-07T11:16:54.795Z,2.10
2022-08-07T11:19:48.507Z,2.30
2022-08-07T11:22:44.112Z,2.28
2022-08-07T11:26:06.180Z,2.13
2022-08-07T11:28:53.476Z,2.20
2022-08-07T11:31:35.377Z,2.20
2022-08-07T11:34:24.605Z,2.15
2022-08-07T11:37:16.565Z,2.20
2022-08-07T11:40:21.691Z,2.47
2022-08-07T11:43:16.654Z,2.20
2022-08-07T11:45:59.469Z,1.98
2022-08-07T11:49:27.486Z,2.22
2022-08-07T11:52:07.813Z,2.30
2022-08-07T11:55:18.551Z,2.10
2022-08-07T11:58:01.867Z,2.28
2022-08-07T12:00:38.152Z,2.10
2022-08-07T12:03:44.560Z,2.20
2022-08-07T12:07:08.002Z,2.22
2022-08-07T12:10:24.984Z,1.97
2022-08-07T12:13:03.391Z,1.83
2022-08-07T12:16:30.317Z,2.15
2022-08-07T12:19:14.636Z,2.22
2022-08-07T12:22:38.689Z,2.10
2022-08-07T12:26:03.310Z,2.03
2022-08-07T12:28:24.047Z,2.13
2022-08-07T12:31:05.584Z,2.00
2022-08-07T12:33:56.614Z,2.30
2022-08-07T12:36:33.030Z,1.80
2022-08-07T12:39:09.558Z,2.00
2022-08-07T12:41:54.543Z,2.13
2022-08-07T12:44:24.193Z,2.28
2022-08-07T12:47:08.588Z,2.30
2022-08-07T12:50:05.080Z,2.08
2022-08-07T12:53:25.240Z,2.10
2022-08-07T12:56:25.053Z,1.90
2022-08-07T12:58:57.912Z,2.03
2022-08-07T13:01:32.390Z,2.05
2022-08-07T13:04:13.713Z,2.03
2022-08-07T13:08:12.081Z,1.83
2022-08-07T13:10:36.711Z,1.70
2022-08-07T13:13:47.478Z,1.90
2022-08-07T13:16:25.090Z,1.80
2022-08-07T13:19:00.896Z,1.75
2022-08-07T13:21:57.377Z,1.73
2022-08-07T13:24:34.971Z,1.70
2022-08-07T13:27:05.761Z,1.90
2022-08-07T13:29:47.832Z,1.95
2022-08-07T13:32:53.717Z,2.03
2022-08-07T13:36:01.128Z,2.20
2022-08-07T13:38:41.993Z,2.33
2022-08-07T13:41:41.594Z,1.80
2022-08-07T13:44:10.694Z,2.20
2022-08-07T13:46:49.538Z,2.00
2022-08-07T13:50:35.198Z,2.00
2022-08-07T13:52:30.594Z,1.80
2022-08-07T13:54:59.696Z,2.15
2022-08-07T13:57:37.605Z,1.80
2022-08-07T14:00:08.560Z,2.10
2022-08-07T14:02:56.553Z,1.93
2022-08-07T14:05:24.897Z,2.17
2022-08-07T14:08:05.881Z,2.05
2022-08-07T14:10:42.030Z,1.98
2022-08-07T14:13:16.255Z,1.90
2022-08-07T14:15:51.245Z,2.10
2022-08-07T14:18:35.704Z,2.10
2022-08-07T14:21:20.838Z,2.00
2022-08-07T14:24:05.004Z,2.30
2022-08-07T14:26:50.649Z,2.00
2022-08-07T14:30:07.337Z,2.40
2022-08-07T14:32:12.984Z,2.10
2022-08-07T14:34:47.011Z,2.50
2022-08-07T14:37:17.268Z,2.35
2022-08-07T14:40:17.991Z,2.30
2022-08-07T14:42:35.618Z,2.40
2022-08-07T14:45:46.575Z,2.40
2022-08-07T14:48:19.608Z,2.30
2022-08-07T14:50:53.253Z,2.40
2022-08-07T14:56:13.087Z,2.00
2022-08-07T14:58:43.000Z,2.45
2022-08-07T15:01:22.071Z,2.22
2022-08-07T15:04:06.302Z,2.50
2022-08-07T15:06:36.859Z,2.22
2022-08-07T15:09:59.153Z,2.30
2022-08-07T15:12:07.838Z,2.30
2022-08-07T15:14:55.950Z,2.05
2022-08-07T15:17:54.600Z,2.20
2022-08-07T15:20:33.688Z,2.17
2022-08-07T15:23:16.909Z,2.10
2022-08-07T15:25:55.899Z,2.30
2022-08-07T15:28:35.103Z,2.40
2022-08-07T15:31:12.839Z,2.15
2022-08-07T15:34:02.525Z,2.38
2022-08-07T15:39:22.402Z,2.70
2022-08-07T15:42:44.482Z,2.30
2022-08-07T15:44:52.306Z,2.38
2022-08-07T15:47:21.402Z,2.30
2022-08-07T15:50:12.405Z,2.20
2022-08-07T15:53:11.220Z,2.25
2022-08-07T15:55:53.296Z,2.30
2022-08-07T15:58:52.284Z,2.60
2022-08-07T16:01:38.824Z,2.20
2022-08-07T16:04:15.132Z,2.20
2022-08-07T16:06:54.544Z,2.03
2022-08-07T16:09:42.459Z,2.38
2022-08-07T16:13:00.986Z,2.30
2022-08-07T16:16:06.575Z,2.20
2022-08-07T16:19:09.539Z,2.50
2022-08-07T16:22:08.866Z,2.40
2022-08-07T16:24:56.838Z,2.30
2022-08-07T16:27:39.732Z,2.25
2022-08-07T16:30:30.683Z,1.90
2022-08-07T16:34:06.778Z,2.03
2022-08-07T16:36:31.464Z,2.30
2022-08-07T16:39:20.963Z,2.55
2022-08-07T16:42:12.499Z,2.10
2022-08-07T16:46:47.065Z,2.30
2022-08-07T16:49:04.271Z,2.00
2022-08-07T16:52:06.387Z,2.20
2022-08-07T16:54:40.257Z,2.75
2022-08-07T16:58:01.844Z,2.10
2022-08-07T17:00:40.297Z,2.00
2022-08-07T17:03:07.091Z,2.13
2022-08-07T17:06:19.605Z,2.17
2022-08-07T17:09:14.000Z,2.20
2022-08-07T17:12:33.903Z,2.00
2022-08-07T17:15:15.518Z,1.90
2022-08-07T17:17:55.510Z,2.00
2022-08-07T17:20:30.061Z,1.92
2022-08-07T17:23:22.481Z,1.83
2022-08-07T17:26:22.804Z,2.40
2022-08-07T17:28:56.604Z,1.77
2022-08-07T17:32:02.800Z,2.00
2022-08-07T17:35:33.156Z,2.00
2022-08-07T17:38:32.990Z,2.10
2022-08-07T17:42:02.774Z,1.90
2022-08-07T17:44:05.813Z,2.00
2022-08-07T17:46:46.001Z,2.10
2022-08-07T17:49:30.138Z,1.98
2022-08-07T17:52:37.008Z,1.95
2022-08-07T17:55:55.728Z,1.85
2022-08-07T17:58:40.075Z,1.67
2022-08-07T18:01:21.936Z,2.10
2022-08-07T18:04:21.514Z,2.30
2022-08-07T18:07:20.816Z,2.03
2022-08-07T18:10:06.430Z,2.17
2022-08-07T18:12:58.596Z,2.20
2022-08-07T18:15:32.657Z,2.10
2022-08-07T18:18:47.400Z,2.00
2022-08-07T18:21:42.166Z,1.85
2022-08-07T18:24:36.987Z,1.90
2022-08-07T18:27:17.148Z,1.88
2022-08-07T18:30:06.695Z,1.63
2022-08-07T18:32:56.481Z,1.65
2022-08-07T18:36:02.492Z,1.50
2022-08-07T18:40:08.054Z,1.80
2022-08-07T18:41:54.122Z,1.60
2022-08-07T18:45:44.033Z,1.90
2022-08-07T18:47:44.929Z,1.60
2022-08-07T18:50:38.824Z,1.70
2022-08-07T18:53:55.770Z,2.00
2022-08-07T18:56:34.637Z,1.65
2022-08-07T18:59:47.705Z,1.80
2022-08-07T19:02:41.979Z,1.50
2022-08-07T19:06:01.990Z,1.70
2022-08-07T19:08:33.792Z,1.45
2022-08-07T19:11:35.209Z,1.70
2022-08-07T19:14:20.393Z,1.93
2022-08-07T19:17:05.429Z,1.83
2022-08-07T19:19:55.705Z,1.80
2022-08-07T19:22:40.359Z,1.80
2022-08-07T19:26:22.045Z,1.90
2022-08-07T19:28:31.056Z,1.60
2022-08-07T19:31:37.183Z,1.77
2022-08-07T19:33:56.523Z,1.90
2022-08-07T19:36:28.057Z,1.75
2022-08-07T19:38:59.070Z,1.85
2022-08-07T19:41:44.454Z,1.97
2022-08-07T19:44:21.241Z,1.92
2022-08-07T19:46:55.806Z,2.40
2022-08-07T19:49:58.134Z,2.45
2022-08-07T19:52:18.532Z,2.30
2022-08-07T19:54:56.137Z,2.70
2022-08-07T19:58:03.627Z,2.30
2022-08-07T20:00:28.967Z,2.20
2022-08-07T20:03:02.815Z,2.00
2022-08-07T20:06:00.691Z,1.95
2022-08-07T20:08:36.753Z,2.10
2022-08-07T20:11:10.539Z,2.20
2022-08-07T20:13:48.435Z,2.25
2022-08-07T20:16:36.406Z,2.70
2022-08-07T20:19:11.080Z,2.83
2022-08-07T20:21:41.679Z,2.60
2022-08-07T20:24:17.961Z,2.70
2022-08-07T20:26:50.460Z,2.55
2022-08-07T20:29:47.791Z,3.67
2022-08-07T20:32:22.319Z,2.75
2022-08-07T20:34:54.276Z,2.60
2022-08-07T20:37:29.728Z,3.25
2022-08-07T20:40:04.214Z,2.67
2022-08-07T20:42:33.447Z,2.80
2022-08-07T20:45:01.485Z,3.10
2022-08-07T20:47:56.014Z,2.80
2022-08-07T20:50:20.685Z,3.38
2022-08-07T20:52:52.092Z,2.88
2022-08-07T20:55:23.681Z,2.72
2022-08-07T20:58:00.045Z,2.75
2022-08-07T21:00:42.925Z,2.30
2022-08-07T21:03:23.242Z,2.55
2022-08-07T21:06:00.741Z,2.53
2022-08-07T21:08:55.780Z,2.30
2022-08-07T21:11:29.037Z,2.60
2022-08-07T21:14:34.601Z,2.90
2022-08-07T21:18:03.444Z,2.90
2022-08-07T21:20:04.973Z,2.95
2022-08-07T21:22:39.812Z,3.10
2022-08-07T21:25:20.211Z,3.28
2022-08-07T21:28:09.064Z,2.60
2022-08-07T21:31:01.996Z,2.80
2022-08-07T21:33:41.110Z,2.70
2022-08-07T21:36:31.346Z,2.70
2022-08-07T21:39:46.950Z,2.90
2022-08-07T21:42:37.712Z,3.23
2022-08-07T21:46:08.386Z,2.78
2022-08-07T21:48:29.057Z,2.88
2022-08-07T21:51:33.032Z,3.20
2022-08-07T21:54:46.225Z,3.72
2022-08-07T21:57:39.581Z,3.10
2022-08-07T22:00:25.057Z,3.40
2022-08-07T22:02:52.872Z,3.15
2022-08-07T22:05:44.768Z,3.50
2022-08-07T22:08:18.428Z,3.25
2022-08-07T22:10:53.738Z,3.10
2022-08-07T22:13:24.733Z,2.72
2022-08-07T22:16:43.806Z,3.22
2022-08-07T22:19:43.862Z,3.40
2022-08-07T22:22:27.858Z,3.25
2022-08-07T22:25:03.112Z,3.07
2022-08-07T22:27:34.144Z,2.83
2022-08-07T22:30:20.628Z,2.70
2022-08-07T22:32:47.269Z,3.05
2022-08-07T22:35:17.710Z,2.75
2022-08-07T22:38:04.150Z,3.23
2022-08-07T22:40:47.351Z,3.55
2022-08-07T22:43:31.383Z,3.22
2022-08-07T22:46:56.005Z,3.53
2022-08-07T22:49:00.864Z,3.22
2022-08-07T22:52:04.053Z,3.30
2022-08-07T22:54:48.937Z,3.47
2022-08-07T22:57:34.851Z,3.40
2022-08-07T23:00:21.309Z,3.67
2022-08-07T23:02:54.006Z,3.58
2022-08-07T23:06:09.842Z,3.60
2022-08-07T23:08:55.885Z,3.42
2022-08-07T23:11:28.267Z,3.25
2022-08-07T23:14:25.469Z,3.53
2022-08-07T23:17:15.620Z,3.60
2022-08-07T23:20:08.987Z,3.40
2022-08-07T23:22:52.356Z,3.40
2022-08-07T23:25:38.878Z,3.38
2022-08-07T23:28:20.353Z,3.50
2022-08-07T23:32:49.695Z,3.60
2022-08-07T23:34:22.211Z,3.30
2022-08-07T23:37:19.416Z,3.67
2022-08-07T23:40:07.538Z,3.38
2022-08-07T23:42:54.076Z,3.47
2022-08-07T23:46:01.432Z,3.30
2022-08-07T23:48:22.870Z,3.20
2022-08-07T23:50:59.555Z,3.30
2022-08-07T23:53:50.942Z,3.35
2022-08-07T23:56:53.847Z,3.40
